Latest Weather Observations for Bushy Park

IDT60901

Issued at 9:21 pm EDT Thursday 21 November 2019 (issued every 10 minutes, with the page automatically refreshed every 10 minutes)

About weather observations | Map of Hobart area stations | Latest observations for Hobart area | Other Formats
Station Details ID: 095003 Name: BUSHY PARK (BUSHY PARK ESTATES) Lat: -42.71 Lon: 146.90 Height: 27.0 m
Data from the previous 72 hours. | See also: Recent months at Bushy Park
Date/Time
EDT
Temp
°C
App
Temp
°C
Dew
Point
°C
Rel
Hum
%
Delta-T
°C
Wind Press
QNH
hPa
Press
MSL
hPa
Rain since
9am
mm
Dir  Spd
km/h
Gust
km/h
Spd
kts
Gust
kts
21/09:00pm 15.4 10.5 6.9 57 4.2 WNW 22 35 12 19 - - 0.0
21/08:30pm 16.1 11.2 6.8 54 4.6 W 22 39 12 21 - - 0.0
21/08:00pm 17.1 12.0 9.3 60 4.1 W 26 44 14 24 - - 0.0
21/07:30pm 20.0 15.4 9.8 52 5.5 W 24 48 13 26 - - 0.0
21/07:20pm 21.1 15.7 9.4 47 6.3 W 28 50 15 27 - - 0.0
21/07:00pm 23.9 18.7 7.4 34 8.6 WSW 24 41 13 22 - - 0.0
21/06:30pm 28.4 20.5 4.2 21 12.3 NW 35 57 19 31 - - 0.0
21/06:03pm 30.8 21.4 2.1 16 14.3 NNW 41 59 22 32 - - 0.0
21/06:00pm 30.9 21.3 3.5 17 14.0 NNW 43 59 23 32 - - 0.0
21/05:30pm 31.8 22.2 3.6 17 14.5 NNW 43 63 23 34 - - 0.0
21/05:12pm 32.9 23.0 1.9 14 15.6 NNW 43 85 23 46 - - 0.0
21/05:00pm 33.4 24.3 3.9 15 15.4 NNW 41 63 22 34 - - 0.0
21/04:30pm 33.6 23.9 2.8 14 15.8 NNW 43 69 23 37 - - 0.0
21/04:00pm 34.3 24.5 2.2 13 16.4 NNW 43 65 23 35 - - 0.0
21/03:30pm 34.9 24.6 2.4 13 16.7 NNW 46 70 25 38 - - 0.0
21/03:00pm 33.5 24.0 4.1 16 15.4 NNW 43 67 23 36 - - 0.0
21/02:30pm 34.7 26.3 3.9 14 16.2 NW 37 63 20 34 - - 0.0
21/02:00pm 33.3 25.4 2.5 14 15.7 NW 33 52 18 28 - - 0.0
21/01:46pm 34.5 26.9 3.0 14 16.3 NNW 32 56 17 30 - - 0.0
21/01:44pm 34.8 27.6 5.2 16 15.9 NNW 32 46 17 25 - - 0.0
21/01:30pm 34.6 25.5 2.1 13 16.6 WNW 39 59 21 32 - - 0.0
21/01:25pm 34.4 25.3 1.6 12 16.6 WNW 39 57 21 31 - - 0.0
21/01:00pm 34.1 26.3 2.9 14 16.1 NNW 33 59 18 32 - - 0.0
21/12:30pm 35.7 28.6 5.4 15 16.4 NNW 32 50 17 27 - - 0.0
21/12:02pm 34.1 25.4 2.1 13 16.3 NW 37 78 20 42 - - 0.0
21/12:00pm 34.2 25.9 2.3 13 16.3 NW 35 56 19 30 - - 0.0
21/11:44am 33.7 24.3 4.5 16 15.4 NNW 43 61 23 33 - - 0.0
21/11:43am 33.4 24.3 6.6 19 14.6 NNW 44 61 24 33 - - 0.0
21/11:30am 29.1 28.4 12.0 34 9.9 WNW 7 17 4 9 - - 0.0
21/11:00am 25.2 25.5 13.5 48 6.9 ESE 4 9 2 5 - - 0.0
21/10:30am 23.0 22.1 11.3 47 6.5 E 7 15 4 8 - - 0.0
21/10:00am 20.6 19.7 9.4 48 6.0 SSE 4 7 2 4 - - 0.0
21/09:30am 18.1 16.6 9.2 56 4.7 E 7 9 4 5 - - 0.0
21/09:00am 16.3 15.4 9.2 63 3.7 NE 4 9 2 5 - - 0.0
21/08:30am 14.3 13.7 7.5 63 3.4 CALM 0 6 0 3 - - 0.0
21/08:00am 12.6 11.0 8.2 74 2.2 NE 6 9 3 5 - - 0.0
21/07:30am 10.4 9.5 7.9 84 1.2 NNE 2 9 1 5 - - 0.0
21/07:00am 8.4 7.5 6.2 86 1.0 CALM 0 0 0 0 - - 0.0
21/06:30am 7.2 6.2 5.7 90 0.7 CALM 0 0 0 0 - - 0.0
21/06:00am 6.6 5.6 5.5 93 0.5 CALM 0 6 0 3 - - 0.0
21/05:30am 6.7 5.7 5.6 93 0.5 CALM 0 0 0 0 - - 0.0
21/05:00am 6.9 5.5 5.3 89 0.7 W 2 7 1 4 - - 0.0
21/04:30am 7.0 4.8 5.4 89 0.7 NNW 6 7 3 4 - - 0.0
21/04:00am 7.2 5.1 5.9 91 0.6 NNW 6 9 3 5 - - 0.0
21/03:30am 7.2 5.0 6.1 93 0.5 W 7 11 4 6 - - 0.0
21/03:00am 7.5 5.3 6.4 93 0.5 W 7 11 4 6 - - 0.0
21/02:30am 7.7 6.5 6.4 91 0.6 WSW 2 7 1 4 - - 0.0
21/02:00am 8.0 6.4 6.3 89 0.8 W 4 9 2 5 - - 0.0
21/01:30am 8.7 5.6 7.2 90 0.7 SW 13 15 7 8 - - 0.0
21/01:00am 9.4 7.1 7.3 87 1.0 WSW 9 15 5 8 - - 0.0
21/12:30am 9.9 8.3 7.8 87 1.0 WSW 6 11 3 6 - - 0.0
21/12:00am 10.9 8.4 8.1 83 1.4 SW 11 13 6 7 - - 0.0
 
Date/Time
EDT
Temp
°C
App
Temp
°C
Dew
Point
°C
Rel
Hum
%
Delta-T
°C
Wind Press
QNH
hPa
Press
MSL
hPa
Rain since
9am
mm
Dir  Spd
km/h
Gust
km/h
Spd
kts
Gust
kts
20/11:30pm 11.1 9.2 8.9 86 1.1 SW 9 15 5 8 - - 0.0
20/11:00pm 12.2 11.3 9.3 82 1.5 WSW 4 11 2 6 - - 0.0
20/10:30pm 12.7 10.5 9.2 79 1.8 WSW 11 15 6 8 - - 0.0
20/10:00pm 13.7 13.1 10.5 81 1.7 WNW 4 7 2 4 - - 0.0
20/09:30pm 14.4 14.1 10.2 76 2.2 E 2 9 1 5 - - 0.0
20/09:00pm 15.2 15.3 10.3 72 2.6 CALM 0 0 0 0 - - 0.0
20/08:30pm 17.3 15.9 10.8 65 3.5 SSE 9 11 5 6 - - 0.0
20/08:00pm 18.7 16.9 9.5 55 4.9 S 9 13 5 7 - - 0.0
20/07:30pm 19.8 18.1 8.4 47 5.9 ESE 7 9 4 5 - - 0.0
20/07:00pm 21.2 20.4 11.8 55 5.3 S 7 9 4 5 - - 0.0
20/06:30pm 21.9 21.1 8.3 41 7.2 WNW 2 6 1 3 - - 0.0
20/06:00pm 23.0 20.7 4.8 30 9.0 WSW 6 7 3 4 - - 0.0
20/05:30pm 22.9 21.4 5.0 31 8.9 NE 2 6 1 3 - - 0.0
20/05:00pm 21.8 21.0 6.3 36 7.9 CALM 0 0 0 0 - - 0.0
20/04:30pm 21.3 19.9 10.8 51 5.8 SE 9 11 5 6 - - 0.0
20/04:00pm 22.7 20.4 5.8 33 8.5 WSW 7 11 4 6 - - 0.0
20/03:30pm 22.8 19.7 5.4 32 8.7 S 11 15 6 8 - - 0.0
20/03:00pm 22.5 19.8 5.8 34 8.4 SW 9 11 5 6 - - 0.0
20/02:30pm 22.0 20.0 6.1 35 8.0 SSW 6 13 3 7 - - 0.0
20/02:00pm 21.0 18.8 6.2 38 7.4 ESE 7 9 4 5 - - 0.0
20/01:30pm 20.3 17.4 6.5 40 6.9 SSE 11 15 6 8 - - 0.0
20/01:00pm 19.7 17.5 6.2 41 6.7 ESE 7 9 4 5 - - 0.0
20/12:30pm 19.4 17.2 6.3 42 6.5 SSW 7 11 4 6 - - 0.0
20/12:00pm 18.3 16.1 8.0 51 5.3 SSW 9 13 5 7 - - 0.0
20/11:30am 18.0 16.0 6.1 45 5.9 NNE 6 9 3 5 - - 0.0
20/11:00am 16.5 13.9 5.9 49 5.1 NE 9 13 5 7 - - 0.0
20/10:30am 15.8 13.4 6.9 55 4.4 NE 9 13 5 7 - - 0.0
20/10:00am 14.2 11.8 6.9 61 3.6 SSW 9 11 5 6 - - 0.0
20/09:30am 12.9 12.1 6.7 66 3.0 CALM 0 4 0 2 - - 0.0
20/09:00am 11.8 9.6 6.1 68 2.7 E 7 11 4 6 - - 0.0
20/08:30am 11.3 10.0 6.0 70 2.5 N 2 7 1 4 - - 0.0
20/08:00am 9.8 6.6 5.2 73 2.1 N 11 15 6 8 - - 0.0
20/07:30am 8.4 6.4 4.3 75 1.8 NNE 4 9 2 5 - - 0.0
20/07:00am 7.2 4.7 4.7 84 1.1 NE 7 9 4 5 - - 0.0
20/06:30am 6.3 5.1 4.5 88 0.8 CALM 0 0 0 0 - - 0.0
20/06:00am 6.2 5.0 4.4 88 0.8 CALM 0 0 0 0 - - 0.0
20/05:30am 6.5 5.4 4.9 89 0.7 CALM 0 0 0 0 - - 0.0
20/05:00am 6.7 5.6 4.9 88 0.8 CALM 0 0 0 0 - - 0.0
20/04:30am 6.6 4.3 4.8 88 0.8 N 6 7 3 4 - - 0.0
20/04:00am 6.2 5.0 4.4 88 0.8 CALM 0 0 0 0 - - 0.0
20/03:30am 5.8 4.1 4.2 89 0.7 NE 2 6 1 3 - - 0.0
20/03:00am 5.7 2.7 4.1 89 0.7 SSW 9 9 5 5 - - 0.0
20/02:30am 5.5 4.2 3.9 89 0.7 CALM 0 0 0 0 - - 0.0
20/02:00am 4.6 2.8 3.4 92 0.5 W 2 9 1 5 - - 0.0
20/01:30am 4.1 1.4 2.9 92 0.5 W 6 9 3 5 - - 0.0
20/01:00am 4.4 1.8 3.2 92 0.5 WNW 6 13 3 7 - - 0.0
20/12:30am 4.5 1.3 2.8 89 0.7 SW 9 11 5 6 - - 0.0
20/12:00am 5.5 2.9 3.4 86 0.9 WSW 6 9 3 5 - - 0.0
 
Date/Time
EDT
Temp
°C
App
Temp
°C
Dew
Point
°C
Rel
Hum
%
Delta-T
°C
Wind Press
QNH
hPa
Press
MSL
hPa
Rain since
9am
mm
Dir  Spd
km/h
Gust
km/h
Spd
kts
Gust
kts
19/11:30pm 6.4 3.2 3.1 79 1.4 SW 9 15 5 8 - - 0.0
19/11:00pm 6.5 3.4 3.4 80 1.3 ESE 9 11 5 6 - - 0.0
19/10:30pm 7.1 4.1 3.9 80 1.4 SW 9 11 5 6 - - 0.0
19/10:00pm 8.4 6.7 4.1 74 1.9 WSW 2 6 1 3 - - 0.0
19/09:30pm 9.6 7.4 3.4 65 2.7 W 4 9 2 5 - - 0.0
19/09:00pm 10.2 8.1 3.7 64 2.9 N 4 9 2 5 - - 0.0
19/08:30pm 11.7 8.6 3.4 56 3.7 WSW 9 15 5 8 - - 0.0
19/08:00pm 13.5 8.7 2.8 48 4.7 SW 17 26 9 14 - - 0.0
19/07:30pm 14.3 9.2 3.0 46 5.1 SW 19 26 10 14 - - 0.0
19/07:00pm 15.0 9.8 2.3 42 5.6 SW 19 28 10 15 - - 0.0
19/06:30pm 15.7 10.8 1.8 39 6.1 WSW 17 26 9 14 - - 0.0
19/06:00pm 16.7 11.7 1.5 36 6.7 WSW 17 26 9 14 - - 0.0
19/05:30pm 17.2 11.6 3.2 39 6.5 SW 22 32 12 17 - - 0.0
19/05:00pm 17.0 12.1 1.7 35 6.8 WSW 17 26 9 14 - - 0.0
19/04:30pm 16.6 10.6 3.5 41 6.0 SW 24 35 13 19 - - 0.0
19/04:00pm 17.0 10.0 4.1 42 6.0 SW 30 39 16 21 - - 0.0
19/03:30pm 17.1 10.7 5.1 45 5.7 SSW 28 37 15 20 - - 0.0
19/03:00pm 16.7 11.2 4.2 43 5.9 SW 22 32 12 17 - - 0.0
19/02:30pm 18.2 13.8 4.5 40 6.5 W 17 33 9 18 - - 0.0
19/02:00pm 16.8 12.8 2.9 39 6.3 W 13 24 7 13 - - 0.0
19/01:30pm 17.3 12.8 4.3 42 6.1 WNW 17 26 9 14 - - 0.0
19/01:00pm 17.4 13.3 4.1 41 6.3 WNW 15 26 8 14 - - 0.0
19/12:30pm 16.2 11.3 4.1 44 5.6 NNW 19 28 10 15 - - 0.0
19/12:00pm 14.6 9.6 3.8 48 4.9 NNW 19 30 10 16 - - 0.0
19/11:30am 14.8 10.2 3.8 47 5.0 NW 17 26 9 14 - - 0.0
19/11:00am 15.5 11.4 4.2 47 5.2 WNW 15 20 8 11 - - 0.0
19/10:30am 15.5 11.4 4.2 47 5.2 NW 15 26 8 14 - - 0.0
19/10:00am 14.2 10.4 4.0 50 4.7 WNW 13 20 7 11 - - 0.0
19/09:30am 13.7 9.9 3.9 51 4.5 NW 13 19 7 10 - - 0.0
19/09:00am 12.8 8.1 2.9 51 4.4 WNW 17 26 9 14 - - 0.0
19/08:30am 12.6 7.8 2.4 50 4.4 NW 17 28 9 15 - - 0.0
19/08:00am 12.1 7.0 3.1 54 4.0 SW 19 30 10 16 - - 0.0
19/07:30am 11.8 8.2 4.9 62 3.2 NNW 13 22 7 12 - - 0.0
19/07:00am 10.4 6.3 4.2 65 2.8 NW 15 26 8 14 - - 0.0
19/06:30am 11.1 7.8 4.5 64 3.0 NW 11 20 6 11 - - 0.0
19/06:00am 10.6 7.7 4.9 68 2.6 NW 9 11 5 6 - - 0.0
19/05:30am 10.3 7.5 5.3 71 2.3 NNW 9 11 5 6 - - 0.0
19/05:00am 10.9 7.9 4.3 64 3.0 WNW 9 13 5 7 - - 0.0
19/04:30am 11.0 6.9 4.1 62 3.1 NW 15 24 8 13 - - 0.0
19/04:00am 11.3 5.7 3.4 58 3.5 W 22 35 12 19 - - 0.0
19/03:30am 11.8 6.6 3.3 56 3.8 WNW 20 37 11 20 - - 0.0
19/03:00am 11.8 7.3 4.1 59 3.5 WNW 17 37 9 20 - - 0.0
19/02:30am 11.9 6.4 4.2 59 3.5 WNW 22 35 12 19 - - 0.0
19/02:00am 11.6 6.8 4.6 62 3.2 WSW 19 32 10 17 - - 0.0
19/01:30am 12.1 5.9 4.2 58 3.6 WSW 26 39 14 21 - - 0.0
19/01:00am 12.7 6.2 4.7 58 3.7 WSW 28 46 15 25 - - 0.0
19/12:30am 12.9 8.8 4.4 56 3.9 W 15 28 8 15 - - 0.0
19/12:00am 13.1 7.0 4.7 56 3.9 NW 26 41 14 22 - - 0.0
 
Date/Time
EDT
Temp
°C
App
Temp
°C
Dew
Point
°C
Rel
Hum
%
Delta-T
°C
Wind Press
QNH
hPa
Press
MSL
hPa
Rain since
9am
mm
Dir  Spd
km/h
Gust
km/h
Spd
kts
Gust
kts
18/11:30pm 13.2 6.8 5.1 58 3.8 NNW 28 48 15 26 - - 0.0
18/11:21pm 13.6 7.1 4.6 54 4.1 NNW 28 48 15 26 - - 0.0
18/11:00pm 13.5 7.7 6.2 61 3.5 N 26 41 14 22 - - 0.0
18/10:30pm 13.8 9.6 7.6 66 3.1 N 19 26 10 14 - - 0.0
18/10:00pm 13.4 10.4 7.5 67 2.9 NNW 13 19 7 10 - - 0.0
18/09:30pm 13.5 9.4 7.7 68 2.9 WNW 19 30 10 16 - - 0.0

Latest Capital City Observations: Canberra | Sydney | Melbourne | Brisbane | Adelaide | Perth | Hobart | Darwin

Other formats

Comma delimited format used in spreadsheet applications
http://www.bom.gov.au/fwo/IDT60901/IDT60901.94964.axf

JavaScript Object Notation format (JSON) in row-major order
http://www.bom.gov.au/fwo/IDT60901/IDT60901.94964.json

Data quality

Most of these data are generated automatically and are frequently updated. Quality checks on data are not normally performed. It is possible for incorrect values to appear. Refer to information at About Latest Weather Observations and please check the disclaimer before using these data.